Time;durP1;ratioP1;P1;durP2;ratioP2;P2;SDS_P1;SDS_P2;PMS_P1;PMS_P2;Temp;Humidity;BMP_temperature;BMP_pressure;BME280_temperature;BME280_humidity;BME280_pressure;Samples;Min_cycle;Max_cycle;Signal;HPM_P1;HPM_P2
2022/01/07 00:01:28;;;;;;;24.50;20.33;;;;;;;1.53;83.43;101245.97;5012138;28;20520;-44
2022/01/07 00:03:56;;;;;;;29.60;18.80;;;;;;;1.53;83.48;101249.44;5011717;28;20850;-44
2022/01/07 00:06:23;;;;;;;30.33;20.43;;;;;;;1.54;83.88;101240.59;5012017;28;20433;-42
2022/01/07 00:08:52;;;;;;;22.27;18.50;;;;;;;1.56;83.64;101240.47;5011460;28;20818;-40
2022/01/07 00:11:20;;;;;;;38.03;22.30;;;;;;;1.58;84.30;101241.19;5011822;28;20441;-42
2022/01/07 00:13:48;;;;;;;33.10;20.97;;;;;;;1.60;84.02;101231.38;5011488;28;20471;-42
2022/01/07 00:16:16;;;;;;;21.73;18.73;;;;;;;1.60;84.55;101228.75;5011927;28;20432;-42
2022/01/07 00:18:44;;;;;;;30.17;21.37;;;;;;;1.61;84.51;101230.41;5011206;28;20477;-44
2022/01/07 00:21:13;;;;;;;30.10;21.60;;;;;;;1.60;84.09;101221.69;5011754;28;20439;-44
2022/01/07 00:23:41;;;;;;;30.67;20.70;;;;;;;1.61;84.67;101225.16;5011326;28;20443;-46
2022/01/07 00:26:10;;;;;;;28.53;24.30;;;;;;;1.60;84.07;101219.06;5011717;28;20435;-44
2022/01/07 00:28:37;;;;;;;32.53;21.57;;;;;;;1.62;84.16;101216.28;5012394;28;20900;-40
2022/01/07 00:31:05;;;;;;;29.90;22.30;;;;;;;1.65;84.09;101206.38;5016371;28;20429;-45
2022/01/07 00:33:33;;;;;;;27.40;22.00;;;;;;;1.67;83.42;101203.63;5015293;28;20483;-43
2022/01/07 00:36:00;;;;;;;37.23;23.93;;;;;;;1.67;84.20;101199.16;5015231;28;20452;-42
2022/01/07 00:38:30;;;;;;;35.37;25.13;;;;;;;1.67;84.33;101188.66;5014137;28;20922;-46
2022/01/07 00:40:58;;;;;;;39.57;26.80;;;;;;;1.70;84.03;101184.13;5014082;28;20437;-42
2022/01/07 00:43:27;;;;;;;30.83;24.30;;;;;;;1.73;84.29;101191.75;5013673;28;20434;-44
2022/01/07 00:45:54;;;;;;;36.93;24.97;;;;;;;1.72;84.72;101177.78;5013904;28;20457;-43
2022/01/07 00:48:22;;;;;;;36.20;25.97;;;;;;;1.72;85.00;101177.78;5013317;28;20568;-44
2022/01/07 00:50:50;;;;;;;32.10;25.77;;;;;;;1.73;84.80;101168.94;5012202;28;20436;-42
2022/01/07 00:53:18;;;;;;;37.27;26.50;;;;;;;1.76;84.52;101171.31;5014720;28;20532;-42
2022/01/07 00:55:46;;;;;;;30.80;23.73;;;;;;;1.77;84.85;101164.22;5014791;28;21030;-45
2022/01/07 00:58:13;;;;;;;43.33;26.10;;;;;;;1.78;84.76;101165.91;5014653;28;20471;-42
2022/01/07 01:00:42;;;;;;;47.93;25.63;;;;;;;1.82;85.21;101162.06;5014691;28;20993;-43
2022/01/07 01:03:10;;;;;;;31.60;25.37;;;;;;;1.83;85.45;101163.69;5015172;28;20855;-41
2022/01/07 01:05:39;;;;;;;39.80;25.77;;;;;;;1.82;86.26;101151.53;5014598;28;20483;-44
2022/01/07 01:08:06;;;;;;;34.13;23.93;;;;;;;1.84;86.69;101155.69;5014289;28;20548;-42
2022/01/07 01:10:34;;;;;;;33.73;24.77;;;;;;;1.85;86.62;101156.53;5014820;28;20876;-44
2022/01/07 01:13:02;;;;;;;46.37;25.67;;;;;;;1.86;86.97;101145.03;5015386;28;20451;-43
2022/01/07 01:15:29;;;;;;;37.37;25.67;;;;;;;1.87;87.40;101141.44;5015776;28;20461;-42
2022/01/07 01:17:59;;;;;;;36.93;23.60;;;;;;;1.87;87.49;101129.16;5014052;28;20549;-43
2022/01/07 01:20:28;;;;;;;32.70;24.50;;;;;;;1.88;88.31;101133.41;5014708;28;20921;-41
2022/01/07 01:22:55;;;;;;;33.53;24.30;;;;;;;1.89;88.47;101129.84;5014285;28;20437;-43
2022/01/07 01:25:23;;;;;;;33.00;23.60;;;;;;;1.90;88.87;101128.03;5014362;28;20469;-41
2022/01/07 01:27:51;;;;;;;42.97;26.43;;;;;;;1.89;88.99;101123.72;5012037;28;20552;-41
2022/01/07 01:30:19;;;;;;;36.23;26.60;;;;;;;1.87;89.02;101123.03;5014244;28;20439;-44
2022/01/07 01:32:47;;;;;;;45.63;28.27;;;;;;;1.89;89.14;101121.94;5014098;28;20445;-43
2022/01/07 01:35:17;;;;;;;33.10;26.13;;;;;;;1.91;88.81;101114.75;5014235;28;20460;-41
2022/01/07 01:37:45;;;;;;;34.67;25.60;;;;;;;1.92;88.71;101108.53;5013558;28;20552;-42
2022/01/07 01:40:15;;;;;;;38.53;26.03;;;;;;;1.92;89.48;101112.94;5013669;28;21006;-41
2022/01/07 01:42:43;;;;;;;43.20;26.20;;;;;;;1.91;89.80;101103.41;5013255;28;20473;-44
2022/01/07 01:45:11;;;;;;;40.83;28.23;;;;;;;1.91;89.55;101103.41;5006080;28;20449;-42
2022/01/07 01:47:39;;;;;;;32.20;24.47;;;;;;;1.92;89.52;101102.44;5013633;28;20476;-44
2022/01/07 01:50:08;;;;;;;35.40;25.20;;;;;;;1.91;90.17;101100.78;5014185;28;20429;-44
2022/01/07 01:52:37;;;;;;;42.33;26.37;;;;;;;1.90;90.12;101093.84;5013914;28;20437;-43
2022/01/07 01:55:06;;;;;;;39.27;27.27;;;;;;;1.89;90.08;101085.13;5013855;28;20460;-43
2022/01/07 01:57:34;;;;;;;34.27;24.90;;;;;;;1.91;89.94;101079.75;5013297;28;20465;-42
2022/01/07 02:00:01;;;;;;;38.43;28.07;;;;;;;1.89;90.25;101090.38;5013680;28;20475;-43
2022/01/07 02:02:29;;;;;;;36.30;23.60;;;;;;;1.95;90.02;101083.75;5013721;28;20448;-43
2022/01/07 02:04:57;;;;;;;36.03;26.60;;;;;;;1.92;90.55;101078.75;5013579;28;20859;-42
2022/01/07 02:07:27;;;;;;;46.73;27.67;;;;;;;1.92;90.94;101078.75;5013243;28;20819;-43
2022/01/07 02:09:57;;;;;;;34.73;24.57;;;;;;;1.93;90.78;101062.88;5013521;28;20801;-43
2022/01/07 02:12:24;;;;;;;41.20;26.97;;;;;;;1.90;91.36;101057.88;5013847;28;20433;-41
2022/01/07 02:14:52;;;;;;;39.97;26.90;;;;;;;1.92;90.99;101052.47;5013381;28;20469;-43
2022/01/07 02:17:20;;;;;;;34.40;25.27;;;;;;;1.91;91.49;101056.09;5013188;28;20459;-45
2022/01/07 02:19:49;;;;;;;39.43;27.97;;;;;;;1.94;91.44;101055.81;5013505;28;20565;-43
2022/01/07 02:22:17;;;;;;;38.77;27.03;;;;;;;1.94;91.80;101053.19;5014043;28;20814;-43
2022/01/07 02:24:45;;;;;;;41.30;27.00;;;;;;;1.96;91.94;101044.19;5013075;28;20536;-43
2022/01/07 02:27:14;;;;;;;43.47;28.03;;;;;;;1.96;92.08;101041.56;5012780;28;20441;-41
2022/01/07 02:29:44;;;;;;;44.97;27.50;;;;;;;1.94;92.26;101040.84;5013605;28;20499;-43
2022/01/07 02:32:12;;;;;;;41.70;26.90;;;;;;;1.96;92.51;101048.63;5013301;28;20433;-43
2022/01/07 02:34:40;;;;;;;33.30;25.67;;;;;;;1.92;92.33;101044.56;5013088;28;20453;-43
2022/01/07 02:37:09;;;;;;;38.03;26.47;;;;;;;1.95;92.69;101041.69;5012458;28;20447;-43
2022/01/07 02:39:37;;;;;;;38.57;26.50;;;;;;;1.96;92.99;101031.03;5013120;28;21005;-42
2022/01/07 02:42:06;;;;;;;38.63;27.30;;;;;;;1.95;92.82;101026.72;5013221;28;20437;-41
2022/01/07 02:44:34;;;;;;;45.23;27.37;;;;;;;1.96;93.28;101031.03;5012594;28;20966;-41
2022/01/07 02:47:02;;;;;;;40.07;27.63;;;;;;;1.99;93.12;101032.56;5012533;28;20489;-45
2022/01/07 02:49:29;;;;;;;36.60;26.97;;;;;;;1.96;93.39;101024.94;5012959;28;20471;-41
2022/01/07 02:51:57;;;;;;;33.23;25.00;;;;;;;1.94;93.54;101014.53;5012678;28;20433;-42
2022/01/07 02:54:26;;;;;;;41.73;28.37;;;;;;;1.97;93.42;101024.78;5012719;28;20468;-43
2022/01/07 02:56:54;;;;;;;39.27;28.17;;;;;;;2.00;93.67;101026.34;5012869;28;20431;-44
2022/01/07 02:59:21;;;;;;;39.77;27.57;;;;;;;1.97;93.75;101022.16;5012121;28;20465;-42
2022/01/07 03:01:49;;;;;;;40.30;27.20;;;;;;;1.99;93.50;101020.25;5012718;28;20417;-43
2022/01/07 03:04:17;;;;;;;53.17;29.40;;;;;;;1.97;93.61;101010.84;5012214;28;20540;-45
2022/01/07 03:06:45;;;;;;;36.20;26.77;;;;;;;2.00;93.96;101008.75;5012497;28;20536;-45
2022/01/07 03:09:12;;;;;;;45.63;27.00;;;;;;;1.99;93.76;101007.09;5012108;28;20469;-43
2022/01/07 03:11:41;;;;;;;42.20;28.33;;;;;;;1.99;94.08;100998.38;5012544;28;20903;-43
2022/01/07 03:14:09;;;;;;;44.67;27.83;;;;;;;1.99;93.57;100993.13;5011639;28;20465;-42
2022/01/07 03:16:38;;;;;;;44.10;27.40;;;;;;;2.01;94.03;100991.16;5011170;28;20434;-42
2022/01/07 03:19:06;;;;;;;45.77;28.57;;;;;;;2.00;93.88;100986.91;5010641;28;20468;-40
2022/01/07 03:21:34;;;;;;;37.50;28.27;;;;;;;1.99;93.71;100990.47;5011032;28;20503;-41
2022/01/07 03:24:01;;;;;;;43.03;29.60;;;;;;;1.96;93.57;100990.75;5010906;28;20465;-43
2022/01/07 03:26:29;;;;;;;40.00;28.40;;;;;;;1.92;92.77;100984.94;5011375;28;20444;-43
2022/01/07 03:28:58;;;;;;;46.90;29.23;;;;;;;1.91;92.89;100978.00;5010425;28;20467;-43
2022/01/07 03:31:25;;;;;;;50.73;28.87;;;;;;;1.90;92.31;100978.97;5011393;28;20429;-45
2022/01/07 03:33:53;;;;;;;39.13;28.80;;;;;;;1.90;92.21;100972.88;5009184;28;20848;-44
2022/01/07 03:36:21;;;;;;;44.70;29.07;;;;;;;1.92;91.55;100973.56;5008895;28;20934;-43
2022/01/07 03:38:49;;;;;;;56.83;31.63;;;;;;;1.89;91.75;100968.59;5010561;28;20829;-41
2022/01/07 03:41:17;;;;;;;50.73;32.30;;;;;;;1.87;91.66;100957.38;5011251;28;20469;-44
2022/01/07 03:43:44;;;;;;;55.37;33.70;;;;;;;1.86;90.99;100953.91;5011505;28;20433;-41
2022/01/07 03:46:13;;;;;;;41.37;28.53;;;;;;;1.83;91.25;100953.34;5012275;28;20524;-44
2022/01/07 03:48:41;;;;;;;47.83;29.87;;;;;;;1.83;90.94;100950.72;5011583;28;20882;-43
2022/01/07 03:51:09;;;;;;;49.37;28.27;;;;;;;1.83;90.49;100948.09;5012019;28;20433;-42
2022/01/07 03:53:36;;;;;;;41.27;30.47;;;;;;;1.81;90.55;100942.97;5012056;28;20433;-44
2022/01/07 03:56:05;;;;;;;49.90;31.63;;;;;;;1.77;90.52;100946.84;5012437;28;20429;-43
2022/01/07 03:58:32;;;;;;;41.17;29.47;;;;;;;1.74;90.18;100941.00;5012767;28;20544;-42
2022/01/07 04:01:00;;;;;;;45.33;29.43;;;;;;;1.72;89.83;100935.91;5012418;28;20477;-44
2022/01/07 04:03:30;;;;;;;49.00;31.20;;;;;;;1.69;89.49;100936.16;5011713;28;20452;-43
2022/01/07 04:05:57;;;;;;;48.33;30.07;;;;;;;1.65;89.60;100930.34;5015411;28;20467;-43
2022/01/07 04:08:25;;;;;;;46.30;31.40;;;;;;;1.65;89.00;100919.81;5015460;28;20552;-42
2022/01/07 04:10:53;;;;;;;42.63;29.77;;;;;;;1.62;88.56;100924.50;5015764;28;20440;-41
2022/01/07 04:13:20;;;;;;;48.90;31.00;;;;;;;1.60;88.36;100923.84;5016016;28;20451;-44
2022/01/07 04:15:48;;;;;;;39.90;29.67;;;;;;;1.62;87.93;100916.63;5015572;28;20465;-41
2022/01/07 04:18:16;;;;;;;41.43;30.67;;;;;;;1.62;87.61;100917.47;5015101;28;20552;-41
2022/01/07 04:20:45;;;;;;;46.73;29.57;;;;;;;1.56;88.47;100910.13;5015464;28;21007;-44
2022/01/07 04:23:13;;;;;;;55.30;31.43;;;;;;;1.54;88.41;100900.72;5015267;28;20441;-43
2022/01/07 04:25:42;;;;;;;48.27;29.67;;;;;;;1.56;87.31;100909.28;5015445;28;20473;-43
2022/01/07 04:28:10;;;;;;;46.67;30.63;;;;;;;1.56;87.86;100909.28;5015072;28;20557;-45
2022/01/07 04:30:40;;;;;;;43.27;28.60;;;;;;;1.56;87.42;100896.13;5015535;28;20528;-41
2022/01/07 04:33:10;;;;;;;44.83;29.63;;;;;;;1.56;87.39;100893.50;5015109;28;20539;-44
2022/01/07 04:35:38;;;;;;;49.77;30.87;;;;;;;1.54;87.48;100877.91;5015151;28;20917;-43
2022/01/07 04:38:09;;;;;;;43.80;30.10;;;;;;;1.51;87.50;100875.53;5014607;28;20469;-42
2022/01/07 04:40:36;;;;;;;45.27;30.80;;;;;;;1.50;86.82;100879.13;5015241;28;20448;-41
2022/01/07 04:43:06;;;;;;;49.57;29.50;;;;;;;1.51;86.98;100869.44;5014738;28;20439;-45
2022/01/07 04:45:34;;;;;;;45.07;31.37;;;;;;;1.46;86.94;100861.97;5014504;28;20459;-43
2022/01/07 04:48:02;;;;;;;48.77;32.57;;;;;;;1.44;86.55;100852.53;5013250;28;21002;-41
2022/01/07 04:50:30;;;;;;;39.43;29.53;;;;;;;1.42;86.48;100842.19;5013673;28;20437;-42
2022/01/07 04:52:58;;;;;;;50.83;32.80;;;;;;;1.44;86.09;100845.50;5013567;28;20447;-47
2022/01/07 04:55:29;;;;;;;53.10;31.87;;;;;;;1.41;86.24;100839.69;5013749;28;20967;-44
2022/01/07 04:57:57;;;;;;;57.83;31.77;;;;;;;1.40;85.44;100835.41;5013093;28;20465;-43
2022/01/07 05:00:25;;;;;;;44.07;32.30;;;;;;;1.37;85.50;100827.78;5013684;28;20525;-45
2022/01/07 05:02:53;;;;;;;55.00;33.47;;;;;;;1.42;84.72;100834.31;5014244;28;20480;-43
2022/01/07 05:05:20;;;;;;;53.10;32.90;;;;;;;1.39;85.35;100828.47;5014776;28;20548;-41
2022/01/07 05:07:48;;;;;;;50.70;33.97;;;;;;;1.38;84.53;100832.06;5014452;28;20465;-46
2022/01/07 05:10:16;;;;;;;52.27;33.20;;;;;;;1.38;84.41;100827.63;5014895;28;20860;-43
2022/01/07 05:12:45;;;;;;;49.63;32.37;;;;;;;1.40;83.94;100823.09;5014377;28;20798;-41
2022/01/07 05:15:14;;;;;;;44.60;32.60;;;;;;;1.42;84.11;100829.03;5013675;28;20540;-42
2022/01/07 05:17:43;;;;;;;47.00;34.10;;;;;;;1.43;83.83;100830.72;5013408;28;20548;-43
2022/01/07 05:20:12;;;;;;;48.77;33.37;;;;;;;1.44;83.82;100823.63;5014697;28;20433;-42
2022/01/07 05:22:40;;;;;;;42.80;29.87;;;;;;;1.40;84.00;100822.28;5014228;28;20473;-43
2022/01/07 05:25:10;;;;;;;46.97;31.97;;;;;;;1.43;83.88;100822.84;5014226;28;20445;-46
2022/01/07 05:27:38;;;;;;;39.57;30.10;;;;;;;1.42;84.00;100822.94;5013850;28;20465;-43
2022/01/07 05:30:10;;;;;;;43.00;31.23;;;;;;;1.43;83.42;100814.94;5014290;28;20433;-45
2022/01/07 05:32:38;;;;;;;39.60;29.47;;;;;;;1.40;83.54;100822.28;5014255;28;20800;-44
2022/01/07 05:35:07;;;;;;;41.37;30.27;;;;;;;1.45;82.87;100820.06;5014132;28;20457;-42
2022/01/07 05:37:34;;;;;;;40.70;30.53;;;;;;;1.43;82.52;100808.84;5013706;28;20830;-41
2022/01/07 05:40:03;;;;;;;40.47;28.97;;;;;;;1.45;82.71;100818.25;5014323;28;20437;-45
2022/01/07 05:42:31;;;;;;;39.10;30.90;;;;;;;1.44;82.59;100803.44;5013654;28;20487;-41
2022/01/07 05:44:58;;;;;;;43.90;29.47;;;;;;;1.43;82.52;100811.50;5014029;28;20445;-43
2022/01/07 05:47:27;;;;;;;41.13;30.17;;;;;;;1.44;82.70;100792.94;5013693;28;20461;-44
2022/01/07 05:49:55;;;;;;;45.07;30.10;;;;;;;1.46;82.18;100793.66;5013840;28;20442;-46
2022/01/07 05:52:22;;;;;;;47.20;29.87;;;;;;;1.48;82.35;100796.13;5013973;28;20927;-42
2022/01/07 05:54:50;;;;;;;44.37;29.97;;;;;;;1.47;82.59;100789.22;5013676;28;20564;-43
2022/01/07 05:57:18;;;;;;;38.77;28.97;;;;;;;1.48;82.60;100783.00;5013210;28;20842;-41
2022/01/07 05:59:45;;;;;;;39.23;29.93;;;;;;;1.50;83.09;100783.69;5013835;28;20532;-43
2022/01/07 06:02:13;;;;;;;41.20;30.17;;;;;;;1.48;82.90;100781.19;5013802;28;20473;-41
2022/01/07 06:04:46;;;;;;;39.23;27.93;;;;;;;1.49;83.14;100776.78;5014313;28;20849;-43
2022/01/07 06:07:13;;;;;;;35.60;28.23;;;;;;;1.51;83.19;100769.56;5013346;28;20429;-43
2022/01/07 06:09:41;;;;;;;36.60;27.90;;;;;;;1.53;82.98;100765.00;5012272;28;20520;-43
2022/01/07 06:12:10;;;;;;;39.60;28.83;;;;;;;1.51;83.08;100757.28;5011629;28;20431;-45
2022/01/07 06:14:37;;;;;;;35.33;26.60;;;;;;;1.53;83.00;100759.75;5012215;28;20540;-42
2022/01/07 06:17:08;;;;;;;36.77;28.20;;;;;;;1.55;83.27;100747.31;5012848;28;20517;-41
2022/01/07 06:19:35;;;;;;;37.23;28.70;;;;;;;1.56;83.69;100746.34;5013443;28;20776;-46
2022/01/07 06:22:09;;;;;;;32.80;27.27;;;;;;;1.51;84.13;100744.13;5011707;28;20476;-43
2022/01/07 06:24:37;;;;;;;36.13;26.10;;;;;;;1.52;83.67;100743.16;5013178;28;20532;-43
2022/01/07 06:27:05;;;;;;;36.73;27.80;;;;;;;1.53;83.66;100743.97;5012504;28;20430;-43
2022/01/07 06:29:33;;;;;;;33.80;28.20;;;;;;;1.54;83.38;100746.50;5013221;28;20439;-45
2022/01/07 06:32:01;;;;;;;32.90;27.13;;;;;;;1.56;83.17;100741.06;5013231;28;20438;-42
2022/01/07 06:34:29;;;;;;;34.30;26.50;;;;;;;1.59;83.55;100746.06;5012697;28;20828;-45
2022/01/07 06:36:58;;;;;;;34.30;26.30;;;;;;;1.59;84.11;100739.00;5012967;28;20537;-42
2022/01/07 06:39:28;;;;;;;30.10;26.77;;;;;;;1.62;83.96;100743.16;5013384;28;20778;-41
2022/01/07 06:41:58;;;;;;;30.60;26.87;;;;;;;1.59;84.39;100746.88;5013879;28;20477;-41
2022/01/07 06:44:26;;;;;;;31.33;27.93;;;;;;;1.61;84.57;100739.69;5012253;28;20488;-48
2022/01/07 06:46:54;;;;;;;31.03;27.73;;;;;;;1.64;84.77;100733.34;5012893;28;20422;-43
2022/01/07 06:49:22;;;;;;;28.83;25.70;;;;;;;1.65;85.00;100738.44;5012365;28;20869;-41
2022/01/07 06:51:51;;;;;;;39.13;28.33;;;;;;;1.62;85.29;100727.38;5010632;28;20449;-41
2022/01/07 06:54:19;;;;;;;33.60;26.80;;;;;;;1.60;84.95;100724.91;5010318;28;20460;-41
2022/01/07 06:56:48;;;;;;;32.37;27.37;;;;;;;1.61;84.90;100723.13;5010657;28;20901;-41
2022/01/07 06:59:15;;;;;;;31.93;27.00;;;;;;;1.61;85.03;100725.75;5010851;28;20921;-41
2022/01/07 07:01:45;;;;;;;33.20;25.70;;;;;;;1.57;85.44;100719.94;5010616;28;20528;-43
2022/01/07 07:04:13;;;;;;;34.43;27.40;;;;;;;1.58;85.04;100723.38;5010392;28;20830;-45
2022/01/07 07:06:42;;;;;;;33.13;28.13;;;;;;;1.56;85.83;100725.31;5010671;28;20437;-43
2022/01/07 07:09:09;;;;;;;31.47;26.43;;;;;;;1.55;86.01;100737.59;5010708;28;21002;-42
2022/01/07 07:11:37;;;;;;;35.27;29.50;;;;;;;1.57;85.23;100732.22;5010526;28;20939;-41
2022/01/07 07:14:06;;;;;;;36.97;28.23;;;;;;;1.56;85.18;100720.88;5009905;28;20467;-42
2022/01/07 07:16:34;;;;;;;30.00;25.67;;;;;;;1.58;84.90;100726.81;5010043;28;20534;-40
2022/01/07 07:19:01;;;;;;;34.60;28.37;;;;;;;1.58;84.72;100728.66;5010718;28;21178;-42
2022/01/07 07:21:29;;;;;;;33.70;27.53;;;;;;;1.60;84.63;100735.41;5010746;28;20435;-45
2022/01/07 07:23:57;;;;;;;37.80;29.83;;;;;;;1.59;84.24;100728.50;5009823;28;20485;-43
2022/01/07 07:26:24;;;;;;;35.47;28.33;;;;;;;1.58;84.29;100734.72;5010126;28;20440;-41
2022/01/07 07:28:52;;;;;;;37.53;28.23;;;;;;;1.57;83.56;100735.69;5010227;28;20906;-41
2022/01/07 07:31:21;;;;;;;35.30;27.60;;;;;;;1.60;82.91;100734.59;5010549;28;20880;-43
2022/01/07 07:34:17;;;;;;;33.23;27.27;;;;;;;1.60;83.21;100732.78;5010147;28;20440;-41
2022/01/07 07:36:44;;;;;;;37.03;28.27;;;;;;;1.55;83.70;100729.72;5009780;28;20532;-44
2022/01/07 07:39:14;;;;;;;32.20;28.40;;;;;;;1.60;83.09;100738.03;5008062;28;20899;-41
2022/01/07 07:41:43;;;;;;;34.50;27.33;;;;;;;1.59;82.84;100731.13;4996264;28;20456;-44
2022/01/07 07:44:11;;;;;;;34.50;29.10;;;;;;;1.61;83.38;100734.44;5009922;28;20491;-43
2022/01/07 07:46:41;;;;;;;30.07;26.20;;;;;;;1.62;83.26;100736.09;5010707;28;20775;-43
2022/01/07 07:49:10;;;;;;;32.00;27.27;;;;;;;1.61;83.31;100734.44;5002616;28;20477;-43
2022/01/07 07:51:38;;;;;;;35.53;28.50;;;;;;;1.60;83.11;100731.94;5000684;28;21056;-43
2022/01/07 07:54:06;;;;;;;39.20;28.17;;;;;;;1.60;82.74;100740.69;5000007;28;20475;-41
2022/01/07 07:56:34;;;;;;;35.20;27.50;;;;;;;1.61;82.74;100739.69;5002589;28;20434;-42
2022/01/07 07:59:01;;;;;;;34.57;28.03;;;;;;;1.60;82.62;100735.41;5001006;28;20861;-41
2022/01/07 08:01:29;;;;;;;31.10;27.80;;;;;;;1.65;82.43;100730.56;5000150;28;21039;-41
2022/01/07 08:03:58;;;;;;;40.23;28.20;;;;;;;1.66;82.47;100726.13;4999486;28;20484;-40
2022/01/07 08:06:26;;;;;;;34.07;28.77;;;;;;;1.66;82.71;100734.84;4999072;28;20434;-41
2022/01/07 08:08:54;;;;;;;31.47;28.20;;;;;;;1.65;82.81;100729.72;5001425;28;20480;-40
2022/01/07 08:11:24;;;;;;;38.40;28.63;;;;;;;1.66;82.15;100726.97;5000745;28;20469;-40
2022/01/07 08:16:36;;;;;;;33.30;29.77;;;;;;;1.71;82.30;100739.69;5000406;28;20529;-45
2022/01/07 08:19:05;;;;;;;33.70;28.83;;;;;;;1.70;82.93;100732.78;5000797;28;20463;-41
2022/01/07 08:21:33;;;;;;;32.00;28.60;;;;;;;1.72;82.43;100730.84;4998976;28;20833;-43
2022/01/07 08:24:01;;;;;;;33.03;29.73;;;;;;;1.73;83.13;100732.50;4999785;28;20552;-43
2022/01/07 08:26:29;;;;;;;31.30;27.20;;;;;;;1.73;82.65;100735.13;5000885;28;20441;-42
2022/01/07 08:28:59;;;;;;;31.10;26.00;;;;;;;1.72;83.50;100730.84;5001159;28;20820;-41
2022/01/07 08:37:01;;;;;;;32.33;27.57;;;;;;;1.73;83.92;100724.63;4999542;28;20438;-41
2022/01/07 08:39:28;;;;;;;31.90;27.40;;;;;;;1.75;83.70;100724.47;5000401;28;20535;-39
2022/01/07 08:41:56;;;;;;;37.07;27.17;;;;;;;1.75;83.90;100721.84;4999003;28;20433;-41
2022/01/07 08:44:26;;;;;;;30.57;26.63;;;;;;;1.77;84.07;100719.88;4999414;28;20492;-42
2022/01/07 08:46:53;;;;;;;30.43;27.30;;;;;;;1.77;83.69;100718.09;4999841;28;20446;-43
2022/01/07 08:49:23;;;;;;;32.23;28.83;;;;;;;1.80;83.85;100719.59;5000304;28;20476;-41
2022/01/07 08:51:50;;;;;;;30.13;27.03;;;;;;;1.83;83.48;100714.91;5004155;28;21017;-42
2022/01/07 08:54:18;;;;;;;32.30;28.97;;;;;;;1.79;83.79;100710.91;5001762;28;20485;-43
2022/01/07 08:56:45;;;;;;;30.17;27.00;;;;;;;1.82;83.56;100712.44;5003162;28;20441;-42
2022/01/07 08:59:13;;;;;;;29.60;26.53;;;;;;;1.87;83.30;100712.81;5002829;28;20462;-43
2022/01/07 09:01:42;;;;;;;30.83;26.63;;;;;;;1.88;83.74;100712.66;5004314;28;20924;-41
2022/01/07 09:04:10;;;;;;;30.93;27.50;;;;;;;1.88;83.44;100707.41;5003010;28;21063;-43
2022/01/07 09:06:39;;;;;;;32.63;25.60;;;;;;;1.94;82.83;100711.31;5003554;28;20545;-42
2022/01/07 09:09:07;;;;;;;29.50;26.50;;;;;;;1.93;83.18;100710.47;5005063;28;20471;-41
2022/01/07 09:11:34;;;;;;;30.93;27.37;;;;;;;1.96;83.39;100706.72;5004014;28;20448;-43
2022/01/07 09:14:02;;;;;;;29.33;26.30;;;;;;;1.96;83.71;100701.47;5002351;28;20481;-43
2022/01/07 09:16:30;;;;;;;27.90;24.97;;;;;;;2.01;83.07;100699.22;5004171;28;20440;-41
2022/01/07 09:18:58;;;;;;;27.33;24.50;;;;;;;2.06;82.77;100697.81;5003058;28;20470;-45
2022/01/07 09:21:25;;;;;;;28.33;25.53;;;;;;;2.07;83.43;100696.03;5004146;28;20440;-42
2022/01/07 09:23:54;;;;;;;27.70;24.90;;;;;;;2.08;83.31;100697.69;5005771;28;20481;-42
2022/01/07 09:26:22;;;;;;;27.47;24.67;;;;;;;2.14;82.87;100700.59;5001641;28;20436;-42
2022/01/07 09:28:50;;;;;;;27.77;24.83;;;;;;;2.16;82.91;100692.53;5001921;28;20473;-45
2022/01/07 09:31:17;;;;;;;26.60;23.70;;;;;;;2.21;83.19;100685.06;5001501;28;20439;-40
2022/01/07 09:33:45;;;;;;;26.77;24.33;;;;;;;2.25;83.12;100691.66;5002003;28;20493;-43
2022/01/07 09:36:28;;;;;;;27.07;24.17;;;;;;;2.23;83.31;100693.63;5002744;28;20528;-43
2022/01/07 09:38:57;;;;;;;27.37;24.53;;;;;;;2.27;82.62;100692.34;5003490;28;20835;-44
2022/01/07 09:41:25;;;;;;;27.73;24.30;;;;;;;2.30;82.30;100680.72;5002816;28;20534;-43
2022/01/07 09:43:53;;;;;;;30.03;25.97;;;;;;;2.34;82.24;100680.28;5002014;28;20495;-44
2022/01/07 09:46:20;;;;;;;26.00;23.40;;;;;;;2.35;82.34;100689.00;5002842;28;20443;-41
2022/01/07 09:48:48;;;;;;;26.77;23.17;;;;;;;2.32;82.43;100689.28;5002389;28;20465;-43
2022/01/07 09:51:16;;;;;;;26.43;23.90;;;;;;;2.38;81.74;100693.97;5002423;28;20805;-42
2022/01/07 09:53:44;;;;;;;26.47;23.93;;;;;;;2.37;81.78;100690.50;5001826;28;21027;-41
2022/01/07 09:56:13;;;;;;;26.07;23.43;;;;;;;2.44;81.60;100688.13;5002042;28;20442;-41
2022/01/07 09:58:40;;;;;;;31.17;23.57;;;;;;;2.45;82.55;100689.81;5001603;28;20461;-41
2022/01/07 10:01:13;;;;;;;25.23;22.73;;;;;;;2.44;82.86;100694.22;5003241;28;20520;-46
2022/01/07 10:03:42;;;;;;;24.73;21.97;;;;;;;2.52;83.00;100693.50;5001267;28;20475;-41
2022/01/07 10:06:18;;;;;;;25.27;22.67;;;;;;;2.53;83.82;100689.91;5001157;28;20434;-42
2022/01/07 10:08:47;;;;;;;30.90;21.30;;;;;;;2.51;84.45;100692.66;5012243;28;20499;-42
2022/01/07 10:11:18;;;;;;;25.13;22.53;;;;;;;2.56;84.67;100681.69;5049281;23;20495;-43
2022/01/07 10:13:48;;;;;;;24.43;22.03;;;;;;;2.53;85.13;100690.72;5032587;28;20525;-45
2022/01/07 10:16:17;;;;;;;26.00;23.47;;;;;;;2.55;85.05;100680.88;5031427;28;20951;-44
2022/01/07 10:18:51;;;;;;;23.87;21.57;;;;;;;2.54;85.15;100681.03;5031086;28;20464;-45
2022/01/07 10:21:20;;;;;;;25.77;23.07;;;;;;;2.56;84.98;100677.28;5032574;28;20854;-44
2022/01/07 10:23:48;;;;;;;26.43;23.70;;;;;;;2.60;85.21;100681.25;5032087;28;20563;-49
2022/01/07 10:26:22;;;;;;;25.07;22.13;;;;;;;2.65;85.13;100686.94;5032989;28;20498;-45
2022/01/07 10:28:51;;;;;;;24.33;21.97;;;;;;;2.60;86.05;100680.41;5022701;28;20547;-45
2022/01/07 10:31:22;;;;;;;25.80;23.42;;;;;;;2.65;85.71;100686.09;5032485;28;20490;-47
2022/01/07 10:33:53;;;;;;;29.98;27.10;;;;;;;2.74;85.36;100683.41;5031379;28;20475;-49
2022/01/07 10:36:24;;;;;;;27.17;24.47;;;;;;;2.75;87.21;100682.41;5032490;28;20284;-47
2022/01/07 10:38:54;;;;;;;24.90;22.47;;;;;;;2.79;87.44;100681.16;5025899;28;20536;-46
2022/01/07 10:41:23;;;;;;;24.57;22.27;;;;;;;2.75;88.19;100679.78;5031371;28;20553;-43
2022/01/07 10:43:52;;;;;;;25.17;22.53;;;;;;;2.77;88.33;100666.47;5031732;28;20926;-45
2022/01/07 10:46:24;;;;;;;23.53;21.00;;;;;;;2.75;88.38;100671.88;5032331;28;20432;-47
2022/01/07 10:48:54;;;;;;;23.23;21.00;;;;;;;2.73;87.88;100673.00;5031581;28;20467;-47
2022/01/07 10:51:24;;;;;;;24.17;21.67;;;;;;;2.73;87.62;100662.47;5032624;28;20449;-45
2022/01/07 10:53:54;;;;;;;23.50;21.10;;;;;;;2.72;87.31;100668.72;5032116;28;20436;-44
2022/01/07 10:56:27;;;;;;;25.67;22.17;;;;;;;2.77;87.02;100661.22;5032085;28;20519;-44
2022/01/07 10:58:58;;;;;;;28.03;24.30;;;;;;;2.79;86.42;100657.44;5027756;28;20593;-44
2022/01/07 11:01:27;;;;;;;26.83;23.93;;;;;;;2.82;86.23;100656.31;5031927;28;20537;-44
2022/01/07 11:03:57;;;;;;;26.07;23.37;;;;;;;2.84;86.51;100637.75;5031732;28;20444;-43
2022/01/07 11:06:27;;;;;;;27.17;24.37;;;;;;;2.83;86.54;100636.09;5031837;28;20992;-45
2022/01/07 11:08:56;;;;;;;27.93;24.93;;;;;;;2.84;85.96;100638.56;5031371;28;20969;-44
2022/01/07 11:11:29;;;;;;;30.27;23.33;;;;;;;2.86;85.37;100639.25;5031702;28;20586;-45
2022/01/07 11:14:09;;;;;;;26.30;22.70;;;;;;;2.90;85.01;100634.53;5024690;28;20524;-45
2022/01/07 11:16:37;;;;;;;25.83;22.23;;;;;;;2.95;84.84;100629.63;5031822;28;20943;-46
2022/01/07 11:19:07;;;;;;;26.60;24.00;;;;;;;2.98;85.19;100618.78;5031029;28;20466;-46
2022/01/07 11:21:35;;;;;;;26.77;23.87;;;;;;;3.05;84.92;100633.00;5031671;28;20453;-44
2022/01/07 11:24:35;;;;;;;29.07;22.73;;;;;;;3.06;85.61;100624.94;5031052;28;20440;-47
2022/01/07 11:27:06;;;;;;;27.73;22.17;;;;;;;3.14;84.84;100619.75;5031096;28;20471;-45
2022/01/07 11:29:37;;;;;;;27.40;22.40;;;;;;;3.17;85.58;100622.06;5031806;28;20424;-45
2022/01/07 11:32:42;;;;;;;30.13;23.47;;;;;;;3.19;86.04;100611.41;5031509;28;20432;-45